createdAt,value
2023-04-21T00:00:03.035Z,27.80
2023-04-21T00:01:08.328Z,27.79
2023-04-21T00:02:11.247Z,27.79
2023-04-21T00:03:13.800Z,27.79
2023-04-21T00:04:17.869Z,27.75
2023-04-21T00:05:20.075Z,27.76
2023-04-21T00:06:24.871Z,27.78
2023-04-21T00:07:26.812Z,27.77
2023-04-21T00:08:28.766Z,27.76
2023-04-21T00:09:30.647Z,27.77
2023-04-21T00:10:32.579Z,27.75
2023-04-21T00:11:34.730Z,27.75
2023-04-21T00:12:37.709Z,27.72
2023-04-21T00:13:39.637Z,27.75
2023-04-21T00:14:41.852Z,27.73
2023-04-21T00:15:44.963Z,27.72
2023-04-21T00:16:47.262Z,27.72
2023-04-21T00:17:49.553Z,27.71
2023-04-21T00:18:51.405Z,27.71
2023-04-21T00:19:53.349Z,27.71
2023-04-21T00:20:55.506Z,27.71
2023-04-21T00:22:01.300Z,27.69
2023-04-21T00:23:03.865Z,27.69
2023-04-21T00:24:06.602Z,27.68
2023-04-21T00:25:09.091Z,27.68
2023-04-21T00:26:11.617Z,27.67
2023-04-21T00:27:13.761Z,27.67
2023-04-21T00:28:15.738Z,27.68
2023-04-21T00:29:18.010Z,27.66
2023-04-21T00:30:20.226Z,27.64
2023-04-21T00:31:22.126Z,27.66
2023-04-21T00:32:24.180Z,27.65
2023-04-21T00:33:26.788Z,27.63
2023-04-21T00:34:29.870Z,27.63
2023-04-21T00:35:31.719Z,27.64
2023-04-21T00:36:33.650Z,27.63
2023-04-21T00:37:35.762Z,27.63
2023-04-21T00:38:37.890Z,27.62
2023-04-21T00:39:40.026Z,27.60
2023-04-21T00:40:41.930Z,27.59
2023-04-21T00:41:43.755Z,27.60
2023-04-21T00:42:45.611Z,27.60
2023-04-21T00:44:05.933Z,27.70
2023-04-21T00:45:08.523Z,27.61
2023-04-21T00:46:10.771Z,27.58
2023-04-21T00:47:12.827Z,27.56
2023-04-21T00:48:15.281Z,27.56
2023-04-21T00:49:17.448Z,27.56
2023-04-21T00:50:19.591Z,27.54
2023-04-21T00:51:21.797Z,27.53
2023-04-21T00:52:24.771Z,27.54
2023-04-21T00:53:26.643Z,27.53
2023-04-21T00:54:28.888Z,27.53
2023-04-21T00:55:31.304Z,27.52
2023-04-21T00:56:36.026Z,27.52
2023-04-21T00:57:38.207Z,27.51
2023-04-21T00:58:42.887Z,27.53
2023-04-21T00:59:44.954Z,27.51
2023-04-21T01:00:46.860Z,27.49
2023-04-21T01:01:48.982Z,27.48
2023-04-21T01:02:51.170Z,27.49
2023-04-21T01:03:53.521Z,27.48
2023-04-21T01:04:55.902Z,27.45
2023-04-21T01:05:57.821Z,27.47
2023-04-21T01:06:59.655Z,27.44
2023-04-21T01:08:02.770Z,27.41
2023-04-21T01:09:05.302Z,27.46
2023-04-21T01:10:08.407Z,27.44
2023-04-21T01:11:12.252Z,27.42
2023-04-21T01:12:14.192Z,27.44
2023-04-21T01:13:20.333Z,27.43
2023-04-21T01:14:22.162Z,27.42
2023-04-21T01:15:24.777Z,27.42
2023-04-21T01:16:27.692Z,27.40
2023-04-21T01:17:31.362Z,27.42
2023-04-21T01:18:33.404Z,27.40
2023-04-21T01:19:43.055Z,27.44
2023-04-21T01:20:45.031Z,27.40
2023-04-21T01:21:46.874Z,27.39
2023-04-21T01:22:51.697Z,27.35
2023-04-21T01:23:54.210Z,27.37
2023-04-21T01:24:56.209Z,27.36
2023-04-21T01:25:58.294Z,27.35
2023-04-21T01:27:00.165Z,27.35
2023-04-21T01:28:02.674Z,27.34
2023-04-21T01:29:04.608Z,27.35
2023-04-21T01:30:08.696Z,27.34
2023-04-21T01:31:10.487Z,27.33
2023-04-21T01:32:17.274Z,27.35
2023-04-21T01:33:21.954Z,27.33
2023-04-21T01:34:24.036Z,27.33
2023-04-21T01:35:26.030Z,27.31
2023-04-21T01:36:28.101Z,27.31
2023-04-21T01:37:32.940Z,27.29
2023-04-21T01:38:38.731Z,27.30
2023-04-21T01:39:47.499Z,27.32
2023-04-21T01:40:54.914Z,27.33
2023-04-21T01:41:58.102Z,27.30
2023-04-21T01:43:00.016Z,27.27
2023-04-21T01:44:02.046Z,27.28
2023-04-21T01:45:04.509Z,27.26
2023-04-21T01:46:07.770Z,27.27
2023-04-21T01:47:11.349Z,27.22
2023-04-21T01:48:13.596Z,27.23
2023-04-21T01:49:15.750Z,27.20
2023-04-21T01:50:18.228Z,27.24
2023-04-21T01:51:20.082Z,27.20
2023-04-21T01:52:22.046Z,27.22
2023-04-21T01:53:24.016Z,27.23
2023-04-21T01:54:26.025Z,27.22
2023-04-21T01:55:28.222Z,27.22
2023-04-21T01:56:30.107Z,27.22
2023-04-21T01:57:32.075Z,27.19
2023-04-21T01:58:33.847Z,27.18
2023-04-21T01:59:37.158Z,27.20
2023-04-21T02:00:39.181Z,27.19
2023-04-21T02:01:41.332Z,27.18
2023-04-21T02:02:43.294Z,27.17
2023-04-21T02:03:46.301Z,27.17
2023-04-21T02:04:48.316Z,27.17
2023-04-21T02:05:51.205Z,27.16
2023-04-21T02:06:53.063Z,27.15
2023-04-21T02:07:55.476Z,27.14
2023-04-21T02:08:58.404Z,27.15
2023-04-21T02:10:00.343Z,27.13
2023-04-21T02:11:02.429Z,27.12
2023-04-21T02:12:04.600Z,27.14
2023-04-21T02:13:06.886Z,27.10
2023-04-21T02:14:08.764Z,27.10
2023-04-21T02:15:11.619Z,27.11
2023-04-21T02:16:14.382Z,27.08
2023-04-21T02:17:17.508Z,27.12
2023-04-21T02:18:20.245Z,27.10
2023-04-21T02:19:22.174Z,27.09
2023-04-21T02:20:24.068Z,27.09
2023-04-21T02:21:27.384Z,27.09
2023-04-21T02:22:29.254Z,27.07
2023-04-21T02:23:31.118Z,27.06
2023-04-21T02:24:33.021Z,27.06
2023-04-21T02:25:34.886Z,27.07
2023-04-21T02:26:36.780Z,27.07
2023-04-21T02:27:38.637Z,27.06
2023-04-21T02:28:40.605Z,27.06
2023-04-21T02:29:42.711Z,27.05
2023-04-21T02:30:44.657Z,27.03
2023-04-21T02:31:57.939Z,27.02
2023-04-21T02:33:05.222Z,27.05
2023-04-21T02:34:07.692Z,27.03
2023-04-21T02:35:09.871Z,27.02
2023-04-21T02:36:12.159Z,27.02
2023-04-21T02:37:13.996Z,27.00
2023-04-21T02:38:16.552Z,26.99
2023-04-21T02:39:18.682Z,27.00
2023-04-21T02:40:21.431Z,26.99
2023-04-21T02:41:23.813Z,26.98
2023-04-21T02:42:25.788Z,26.98
2023-04-21T02:43:27.654Z,26.97
2023-04-21T02:44:29.480Z,26.96
2023-04-21T02:45:31.329Z,26.97
2023-04-21T02:46:33.233Z,26.94
2023-04-21T02:47:35.170Z,26.97
2023-04-21T02:48:37.239Z,26.97
2023-04-21T02:49:43.420Z,26.97
2023-04-21T02:50:45.401Z,26.97
2023-04-21T02:51:47.206Z,26.97
2023-04-21T02:52:49.091Z,26.97
2023-04-21T02:53:51.174Z,26.95
2023-04-21T02:54:52.991Z,26.94
2023-04-21T02:55:55.837Z,26.91
2023-04-21T02:56:57.685Z,26.93
2023-04-21T02:57:59.520Z,26.93
2023-04-21T02:59:01.529Z,26.91
2023-04-21T03:00:05.073Z,26.91
2023-04-21T03:01:07.320Z,26.90
2023-04-21T03:02:09.241Z,26.90
2023-04-21T03:03:11.726Z,26.90
2023-04-21T03:04:14.206Z,26.88
2023-04-21T03:05:16.531Z,26.91
2023-04-21T03:06:18.511Z,26.89
2023-04-21T03:07:20.925Z,26.90
2023-04-21T03:08:22.744Z,26.88
2023-04-21T03:09:24.872Z,26.87
2023-04-21T03:10:26.976Z,26.86
2023-04-21T03:11:29.049Z,26.85
2023-04-21T03:12:30.910Z,26.85
2023-04-21T03:13:32.875Z,26.84
2023-04-21T03:14:34.822Z,26.84
2023-04-21T03:15:36.573Z,26.86
2023-04-21T03:16:38.974Z,26.85
2023-04-21T03:17:41.639Z,26.83
2023-04-21T03:18:43.545Z,26.83
2023-04-21T03:19:45.475Z,26.84
2023-04-21T03:20:47.340Z,26.83
2023-04-21T03:21:49.358Z,26.82
2023-04-21T03:22:54.279Z,26.83
2023-04-21T03:23:56.168Z,26.83
2023-04-21T03:24:58.331Z,26.82
2023-04-21T03:26:00.606Z,26.83
2023-04-21T03:27:03.234Z,26.80
2023-04-21T03:28:05.700Z,26.79
2023-04-21T03:29:08.109Z,26.80
2023-04-21T03:30:10.978Z,26.78
2023-04-21T03:31:13.196Z,26.79
2023-04-21T03:32:15.441Z,26.79
2023-04-21T03:33:17.821Z,26.78
2023-04-21T03:34:20.189Z,26.78
2023-04-21T03:35:22.730Z,26.78
2023-04-21T03:36:24.995Z,26.78
2023-04-21T03:37:27.230Z,26.76
2023-04-21T03:38:30.025Z,26.76
2023-04-21T03:39:32.634Z,26.76
2023-04-21T03:40:34.821Z,26.76
2023-04-21T03:41:37.242Z,26.76
2023-04-21T03:42:39.588Z,26.75
2023-04-21T03:43:41.918Z,26.74
2023-04-21T03:44:44.103Z,26.75
2023-04-21T03:45:46.583Z,26.73
2023-04-21T03:46:48.871Z,26.73
2023-04-21T03:47:55.203Z,26.76
2023-04-21T03:48:57.568Z,26.72
2023-04-21T03:49:59.769Z,26.72
2023-04-21T03:51:02.011Z,26.71
2023-04-21T03:52:04.472Z,26.68
2023-04-21T03:53:06.722Z,26.70
2023-04-21T03:54:09.131Z,26.69
2023-04-21T03:55:11.931Z,26.69
2023-04-21T03:56:14.284Z,26.67
2023-04-21T03:57:16.694Z,26.66
2023-04-21T03:58:18.939Z,26.66
2023-04-21T03:59:21.614Z,26.67
2023-04-21T04:00:24.182Z,26.65
2023-04-21T04:01:27.924Z,26.66
2023-04-21T04:02:30.592Z,26.65
2023-04-21T04:03:33.371Z,26.63
2023-04-21T04:04:36.631Z,26.62
2023-04-21T04:05:41.845Z,26.62
2023-04-21T04:06:44.583Z,26.63
2023-04-21T04:07:46.883Z,26.61
2023-04-21T04:08:50.263Z,26.60
2023-04-21T04:09:54.535Z,26.61
2023-04-21T04:10:57.166Z,26.58
2023-04-21T04:12:02.057Z,26.61
2023-04-21T04:13:04.837Z,26.59
2023-04-21T04:14:11.055Z,26.58
2023-04-21T04:15:15.740Z,26.58
2023-04-21T04:16:18.490Z,26.59
2023-04-21T04:17:24.901Z,26.56
2023-04-21T04:18:27.369Z,26.57
2023-04-21T04:19:33.922Z,26.58
2023-04-21T04:20:37.771Z,26.57
2023-04-21T04:21:40.607Z,26.57
2023-04-21T04:22:42.908Z,26.54
2023-04-21T04:23:45.341Z,26.54
2023-04-21T04:24:48.036Z,26.54
2023-04-21T04:25:51.988Z,26.55
2023-04-21T04:26:58.273Z,26.54
2023-04-21T04:28:00.918Z,26.54
2023-04-21T04:29:04.030Z,26.52
2023-04-21T04:30:07.069Z,26.53
2023-04-21T04:31:09.377Z,26.54
2023-04-21T04:32:11.744Z,26.53
2023-04-21T04:33:15.202Z,26.53
2023-04-21T04:34:17.949Z,26.52
2023-04-21T04:35:20.271Z,26.53
2023-04-21T04:36:23.038Z,26.52
2023-04-21T04:37:28.898Z,26.52
2023-04-21T04:38:35.052Z,26.53
2023-04-21T04:39:37.655Z,26.53
2023-04-21T04:40:40.195Z,26.53
2023-04-21T04:41:44.166Z,26.53
2023-04-21T04:42:47.010Z,26.51
2023-04-21T04:43:49.584Z,26.52
2023-04-21T04:44:56.089Z,26.52
2023-04-21T04:45:59.060Z,26.53
2023-04-21T04:47:01.381Z,26.51
2023-04-21T04:48:05.919Z,26.50
2023-04-21T04:49:09.286Z,26.50
2023-04-21T04:50:11.710Z,26.49
2023-04-21T04:51:14.068Z,26.50
2023-04-21T04:52:16.312Z,26.49
2023-04-21T04:53:18.560Z,26.49
2023-04-21T04:54:20.973Z,26.48
2023-04-21T04:55:23.745Z,26.48
2023-04-21T04:56:26.187Z,26.49
2023-04-21T04:57:28.419Z,26.47
2023-04-21T04:58:31.044Z,26.49
2023-04-21T04:59:33.667Z,26.50
2023-04-21T05:00:37.789Z,26.49
2023-04-21T05:01:42.043Z,26.49
2023-04-21T05:02:44.869Z,26.48
2023-04-21T05:03:47.703Z,26.47
2023-04-21T05:04:50.903Z,26.47
2023-04-21T05:05:54.680Z,26.48
2023-04-21T05:06:56.856Z,26.47
2023-04-21T05:08:00.220Z,26.48
2023-04-21T05:09:02.812Z,26.48
2023-04-21T05:10:05.585Z,26.46
2023-04-21T05:11:09.069Z,26.46
2023-04-21T05:12:11.876Z,26.46
2023-04-21T05:13:18.816Z,26.46
2023-04-21T05:14:21.303Z,26.46
2023-04-21T05:15:24.293Z,26.45
2023-04-21T05:16:26.589Z,26.45
2023-04-21T05:17:31.256Z,26.46
2023-04-21T05:18:33.789Z,26.45
2023-04-21T05:19:37.494Z,26.44
2023-04-21T05:20:42.658Z,26.47
2023-04-21T05:21:44.929Z,26.44
2023-04-21T05:22:47.534Z,26.42
2023-04-21T05:23:49.796Z,26.43
2023-04-21T05:24:52.597Z,26.43
2023-04-21T05:25:54.960Z,26.43
2023-04-21T05:26:57.336Z,26.42
2023-04-21T05:27:59.645Z,26.44
2023-04-21T05:29:02.496Z,26.42
2023-04-21T05:30:05.214Z,26.42
2023-04-21T05:31:08.661Z,26.44
2023-04-21T05:32:12.543Z,26.42
2023-04-21T05:33:17.950Z,26.42
2023-04-21T05:34:20.413Z,26.42
2023-04-21T05:35:23.033Z,26.41
2023-04-21T05:36:25.744Z,26.42
2023-04-21T05:37:28.016Z,26.40
2023-04-21T05:38:30.205Z,26.39
2023-04-21T05:39:33.517Z,26.38
2023-04-21T05:40:35.859Z,26.39
2023-04-21T05:41:38.286Z,26.39
2023-04-21T05:42:40.787Z,26.39
2023-04-21T05:43:43.168Z,26.36
2023-04-21T05:44:45.756Z,26.36
2023-04-21T05:45:48.733Z,26.37
2023-04-21T05:46:51.316Z,26.36
2023-04-21T05:47:54.320Z,26.36
2023-04-21T05:48:56.886Z,26.34
2023-04-21T05:49:59.142Z,26.32
2023-04-21T05:51:14.863Z,26.40
2023-04-21T05:52:17.925Z,26.35
2023-04-21T05:53:20.233Z,26.33
2023-04-21T05:54:23.239Z,26.29
2023-04-21T05:55:25.993Z,26.31
2023-04-21T05:56:28.268Z,26.31
2023-04-21T05:57:30.589Z,26.27
2023-04-21T05:58:33.786Z,26.28
2023-04-21T05:59:36.151Z,26.27
2023-04-21T06:00:41.177Z,26.26
2023-04-21T06:01:43.886Z,26.27
2023-04-21T06:02:46.305Z,26.26
2023-04-21T06:03:50.575Z,26.26
2023-04-21T06:04:54.061Z,26.25
2023-04-21T06:05:57.397Z,26.24
2023-04-21T06:07:07.421Z,26.27
2023-04-21T06:08:09.889Z,26.24
2023-04-21T06:09:12.301Z,26.24
2023-04-21T06:10:16.357Z,26.22
2023-04-21T06:11:18.800Z,26.21
2023-04-21T06:12:21.169Z,26.22
2023-04-21T06:13:23.683Z,26.21
2023-04-21T06:14:26.114Z,26.20
2023-04-21T06:15:29.988Z,26.19
2023-04-21T06:16:34.450Z,26.19
2023-04-21T06:17:37.243Z,26.20
2023-04-21T06:18:39.566Z,26.20
2023-04-21T06:19:45.271Z,26.21
2023-04-21T06:20:54.681Z,26.22
2023-04-21T06:21:57.763Z,26.21
2023-04-21T06:23:00.405Z,26.17
2023-04-21T06:24:02.864Z,26.15
2023-04-21T06:25:05.923Z,26.16
2023-04-21T06:26:09.672Z,26.17
2023-04-21T06:27:13.303Z,26.15
2023-04-21T06:28:15.568Z,26.15
2023-04-21T06:29:18.437Z,26.16
2023-04-21T06:30:21.500Z,26.16
2023-04-21T06:31:27.095Z,26.13
2023-04-21T06:32:30.867Z,26.14
2023-04-21T06:33:33.843Z,26.15
2023-04-21T06:34:37.468Z,26.13
2023-04-21T06:35:43.014Z,26.12
2023-04-21T06:36:45.628Z,26.12
2023-04-21T06:37:48.140Z,26.11
2023-04-21T06:38:54.164Z,26.11
2023-04-21T06:39:56.627Z,26.11
2023-04-21T06:40:59.135Z,26.11
2023-04-21T06:42:02.536Z,26.10
2023-04-21T06:43:04.786Z,26.10
2023-04-21T06:44:14.063Z,26.11
2023-04-21T06:45:16.447Z,26.12
2023-04-21T06:46:18.943Z,26.11
2023-04-21T06:47:22.659Z,26.13
2023-04-21T06:48:25.194Z,26.12
2023-04-21T06:49:29.071Z,26.11
2023-04-21T06:50:31.614Z,26.12
2023-04-21T06:51:34.095Z,26.13
2023-04-21T06:52:36.664Z,26.12
2023-04-21T06:53:38.903Z,26.12
2023-04-21T06:54:42.710Z,26.13
2023-04-21T06:55:45.458Z,26.12
2023-04-21T06:56:47.840Z,26.12
2023-04-21T06:57:50.283Z,26.13
2023-04-21T06:58:52.951Z,26.12
2023-04-21T06:59:55.233Z,26.12
2023-04-21T07:01:00.967Z,26.14
2023-04-21T07:03:22.900Z,26.16
2023-04-21T07:04:29.975Z,26.14
2023-04-21T07:05:32.652Z,26.15
2023-04-21T07:06:35.087Z,26.12
2023-04-21T07:07:37.466Z,26.12
2023-04-21T07:08:41.182Z,26.14
2023-04-21T07:09:47.327Z,26.13
2023-04-21T07:10:49.761Z,26.15
2023-04-21T07:11:52.797Z,26.16
2023-04-21T07:12:55.800Z,26.13
2023-04-21T07:14:01.261Z,26.16
2023-04-21T07:15:03.900Z,26.15
2023-04-21T07:16:08.328Z,26.17
2023-04-21T07:17:11.154Z,26.16
2023-04-21T07:18:13.666Z,26.17
2023-04-21T07:19:16.105Z,26.14
2023-04-21T07:20:18.910Z,26.17
2023-04-21T07:21:22.141Z,26.17
2023-04-21T07:22:24.413Z,26.16
2023-04-21T07:23:26.748Z,26.16
2023-04-21T07:24:29.124Z,26.17
2023-04-21T07:25:31.687Z,26.17
2023-04-21T07:26:34.654Z,26.18
2023-04-21T07:27:37.311Z,26.20
2023-04-21T07:28:42.677Z,26.19
2023-04-21T07:29:45.016Z,26.20
2023-04-21T07:30:47.650Z,26.18
2023-04-21T07:31:50.406Z,26.18
2023-04-21T07:32:53.844Z,26.19
2023-04-21T07:33:56.133Z,26.19
2023-04-21T07:34:59.544Z,26.19
2023-04-21T07:36:01.997Z,26.20
2023-04-21T07:37:04.335Z,26.18
2023-04-21T07:38:06.810Z,26.20
2023-04-21T07:39:09.077Z,26.19
2023-04-21T07:40:11.867Z,26.20
2023-04-21T07:41:14.976Z,26.21
2023-04-21T07:42:17.336Z,26.23
2023-04-21T07:43:22.450Z,26.22
2023-04-21T07:44:24.987Z,26.23
2023-04-21T07:45:27.431Z,26.24
2023-04-21T07:46:32.392Z,26.24
2023-04-21T07:47:34.865Z,26.24
2023-04-21T07:48:37.175Z,26.24
2023-04-21T07:49:40.777Z,26.26
2023-04-21T07:50:43.128Z,26.26
2023-04-21T07:51:45.916Z,26.26
2023-04-21T07:52:48.427Z,26.26
2023-04-21T07:53:51.175Z,26.28
2023-04-21T07:54:53.550Z,26.26
2023-04-21T07:55:55.945Z,26.26
2023-04-21T07:56:58.459Z,26.26
2023-04-21T07:58:01.436Z,26.28
2023-04-21T07:59:03.976Z,26.28
2023-04-21T08:00:08.426Z,26.29
2023-04-21T08:01:10.909Z,26.29
2023-04-21T08:02:13.502Z,26.29
2023-04-21T08:03:17.436Z,26.32
2023-04-21T08:04:20.120Z,26.33
2023-04-21T08:05:22.887Z,26.32
2023-04-21T08:06:25.415Z,26.32
2023-04-21T08:07:27.750Z,26.33
2023-04-21T08:08:31.951Z,26.34
2023-04-21T08:09:34.312Z,26.36
2023-04-21T08:10:36.636Z,26.35
2023-04-21T08:11:38.992Z,26.33
2023-04-21T08:12:41.820Z,26.33
2023-04-21T08:13:44.168Z,26.35
2023-04-21T08:14:46.308Z,26.36
2023-04-21T08:15:49.151Z,26.39
2023-04-21T08:16:51.635Z,26.38
2023-04-21T08:17:55.344Z,26.39
2023-04-21T08:18:58.141Z,26.39
2023-04-21T08:20:00.869Z,26.40
2023-04-21T08:21:03.235Z,26.43
2023-04-21T08:22:05.827Z,26.41
2023-04-21T08:23:10.278Z,26.42
2023-04-21T08:24:12.984Z,26.42
2023-04-21T08:25:16.153Z,26.42
2023-04-21T08:26:21.232Z,26.44
2023-04-21T08:27:23.627Z,26.44
2023-04-21T08:28:26.036Z,26.46
2023-04-21T08:29:28.748Z,26.45
2023-04-21T08:30:31.517Z,26.46
2023-04-21T08:31:33.947Z,26.47
2023-04-21T08:32:36.550Z,26.50
2023-04-21T08:33:46.744Z,26.49
2023-04-21T08:34:56.114Z,26.54
2023-04-21T08:36:05.507Z,26.52
2023-04-21T08:37:10.237Z,26.53
2023-04-21T08:38:12.604Z,26.53
2023-04-21T08:39:17.167Z,26.52
2023-04-21T08:40:19.755Z,26.54
2023-04-21T08:41:23.104Z,26.54
2023-04-21T08:42:25.393Z,26.54
2023-04-21T08:43:28.717Z,26.55
2023-04-21T08:44:31.149Z,26.56
2023-04-21T08:45:34.241Z,26.56
2023-04-21T08:46:37.264Z,26.58
2023-04-21T08:47:41.656Z,26.59
2023-04-21T08:48:45.463Z,26.61
2023-04-21T08:49:50.366Z,26.63
2023-04-21T08:50:53.936Z,26.64
2023-04-21T08:51:56.257Z,26.65
2023-04-21T08:52:59.010Z,26.65
2023-04-21T08:54:01.640Z,26.66
2023-04-21T08:55:07.385Z,26.67
2023-04-21T08:56:11.759Z,26.70
2023-04-21T08:57:16.326Z,26.69
2023-04-21T08:58:18.788Z,26.73
2023-04-21T08:59:21.792Z,26.71
2023-04-21T09:00:24.891Z,26.73
2023-04-21T09:01:28.018Z,26.74
2023-04-21T09:02:31.143Z,26.75
2023-04-21T09:03:33.817Z,26.75
2023-04-21T09:04:43.120Z,26.76
2023-04-21T09:05:57.163Z,26.78
2023-04-21T09:06:59.514Z,26.81
2023-04-21T09:08:10.681Z,26.86
2023-04-21T09:09:12.741Z,26.82
2023-04-21T09:10:14.611Z,26.83
2023-04-21T09:11:17.082Z,26.80
2023-04-21T09:12:19.901Z,26.81
2023-04-21T09:13:30.061Z,26.88
2023-04-21T09:14:33.734Z,26.87
2023-04-21T09:15:44.772Z,26.91
2023-04-21T09:17:00.040Z,26.95
2023-04-21T09:18:02.218Z,26.90
2023-04-21T09:19:16.035Z,26.94
2023-04-21T09:20:23.224Z,26.93
2023-04-21T09:21:32.001Z,26.92
2023-04-21T09:22:34.192Z,26.93
2023-04-21T09:23:47.488Z,26.98
2023-04-21T09:24:58.099Z,26.99
2023-04-21T09:26:03.595Z,26.96
2023-04-21T09:27:05.485Z,26.94
2023-04-21T09:28:14.795Z,26.98
2023-04-21T09:29:18.542Z,26.96
2023-04-21T09:30:21.402Z,26.96
2023-04-21T09:31:25.479Z,26.94
2023-04-21T09:32:27.667Z,26.92
2023-04-21T09:33:42.521Z,26.98
2023-04-21T09:34:51.551Z,27.00
2023-04-21T09:35:53.817Z,26.98
2023-04-21T09:37:03.707Z,27.02
2023-04-21T09:38:12.494Z,27.03
2023-04-21T09:39:34.490Z,27.02
2023-04-21T09:40:37.456Z,27.05
2023-04-21T09:41:40.812Z,27.04
2023-04-21T09:42:44.472Z,27.03
2023-04-21T09:43:47.131Z,27.03
2023-04-21T09:44:55.360Z,27.03
2023-04-21T09:46:10.063Z,27.09
2023-04-21T09:47:13.346Z,27.10
2023-04-21T09:48:20.608Z,27.10
2023-04-21T09:49:29.204Z,27.10
2023-04-21T09:51:15.348Z,27.10
2023-04-21T09:52:17.663Z,27.14
2023-04-21T09:53:28.720Z,27.20
2023-04-21T09:54:36.824Z,27.18
2023-04-21T09:55:41.732Z,27.17
2023-04-21T09:56:49.339Z,27.16
2023-04-21T09:57:58.484Z,27.20
2023-04-21T09:59:06.502Z,27.18
2023-04-21T10:00:12.404Z,27.19
2023-04-21T10:01:15.613Z,27.18
2023-04-21T10:02:20.896Z,27.18
2023-04-21T10:03:28.960Z,27.21
2023-04-21T10:04:34.443Z,27.20
2023-04-21T10:05:41.262Z,27.20
2023-04-21T10:06:45.951Z,27.22
2023-04-21T10:07:50.140Z,27.22
2023-04-21T10:08:53.978Z,27.22
2023-04-21T10:09:59.566Z,27.22
2023-04-21T10:11:03.212Z,27.22
2023-04-21T10:12:09.023Z,27.23
2023-04-21T10:13:18.866Z,27.28
2023-04-21T10:14:28.132Z,27.27
2023-04-21T10:15:41.425Z,27.34
2023-04-21T10:16:44.024Z,27.31
2023-04-21T10:17:47.333Z,27.30
2023-04-21T10:18:49.259Z,27.29
2023-04-21T10:19:57.180Z,27.30
2023-04-21T10:21:18.003Z,27.33
2023-04-21T10:22:30.639Z,27.39
2023-04-21T10:23:46.796Z,27.44
2023-04-21T10:24:49.920Z,27.34
2023-04-21T10:25:51.892Z,27.34
2023-04-21T10:26:55.314Z,27.34
2023-04-21T10:27:57.283Z,27.34
2023-04-21T10:29:07.026Z,27.39
2023-04-21T10:30:20.768Z,27.47
2023-04-21T10:31:39.701Z,27.48
2023-04-21T10:32:43.456Z,27.40
2023-04-21T10:34:13.026Z,27.55
2023-04-21T10:35:24.184Z,27.50
2023-04-21T10:36:27.018Z,27.42
2023-04-21T10:37:31.671Z,27.41
2023-04-21T10:38:44.464Z,27.48
2023-04-21T10:39:54.683Z,27.49
2023-04-21T10:41:29.651Z,27.61
2023-04-21T10:42:36.956Z,27.50
2023-04-21T10:43:49.314Z,27.49
2023-04-21T10:45:05.712Z,27.52
2023-04-21T10:46:46.651Z,27.68
2023-04-21T10:47:51.393Z,27.51
2023-04-21T10:48:53.671Z,27.49
2023-04-21T10:50:00.408Z,27.47
2023-04-21T10:51:04.287Z,27.47
2023-04-21T10:52:12.222Z,27.50
2023-04-21T10:53:17.518Z,27.51
2023-04-21T10:54:22.664Z,27.50
2023-04-21T10:55:30.083Z,27.52
2023-04-21T10:56:33.163Z,27.49
2023-04-21T10:57:37.132Z,27.48
2023-04-21T10:58:41.417Z,27.50
2023-04-21T10:59:45.187Z,27.51
2023-04-21T11:00:47.702Z,27.49
2023-04-21T11:01:49.838Z,27.50
2023-04-21T11:02:59.948Z,27.53
2023-04-21T11:04:02.079Z,27.50
2023-04-21T11:05:07.427Z,27.52
2023-04-21T11:06:20.569Z,27.56
2023-04-21T11:07:24.328Z,27.53
2023-04-21T11:08:26.143Z,27.52
2023-04-21T11:09:28.345Z,27.51
2023-04-21T11:10:30.357Z,27.53
2023-04-21T11:11:32.442Z,27.53
2023-04-21T11:12:41.937Z,27.58
2023-04-21T11:13:43.861Z,27.56
2023-04-21T11:14:50.488Z,27.55
2023-04-21T11:16:07.945Z,27.65
2023-04-21T11:17:18.700Z,27.64
2023-04-21T11:18:20.875Z,27.60
2023-04-21T11:19:25.142Z,27.59
2023-04-21T11:20:27.431Z,27.57
2023-04-21T11:21:30.462Z,27.58
2023-04-21T11:22:33.584Z,27.59
2023-04-21T11:23:36.461Z,27.60
2023-04-21T11:24:43.904Z,27.61
2023-04-21T11:25:47.921Z,27.61
2023-04-21T11:26:51.999Z,27.62
2023-04-21T11:27:56.604Z,27.62
2023-04-21T11:29:02.770Z,27.64
2023-04-21T11:30:05.915Z,27.63
2023-04-21T11:31:08.273Z,27.61
2023-04-21T11:32:11.292Z,27.60
2023-04-21T11:33:13.613Z,27.62
2023-04-21T11:34:17.524Z,27.61
2023-04-21T11:35:20.055Z,27.63
2023-04-21T11:36:22.880Z,27.64
2023-04-21T11:37:28.180Z,27.66
2023-04-21T11:38:41.299Z,27.74
2023-04-21T11:39:44.330Z,27.67
2023-04-21T11:40:50.203Z,27.67
2023-04-21T11:41:52.792Z,27.66
2023-04-21T11:42:55.090Z,27.67
2023-04-21T11:43:57.162Z,27.65
2023-04-21T11:44:59.456Z,27.67
2023-04-21T11:46:27.544Z,27.84
2023-04-21T11:47:29.650Z,27.72
2023-04-21T11:48:31.777Z,27.70
2023-04-21T11:49:43.799Z,27.72
2023-04-21T11:50:50.757Z,27.73
2023-04-21T11:51:52.671Z,27.72
2023-04-21T11:52:54.711Z,27.71
2023-04-21T11:54:00.405Z,27.73
2023-04-21T11:55:16.118Z,27.80
2023-04-21T11:56:25.159Z,27.77
2023-04-21T11:57:29.689Z,27.74
2023-04-21T11:58:32.594Z,27.74
2023-04-21T11:59:38.209Z,27.72
2023-04-21T12:00:41.188Z,27.75
2023-04-21T12:01:51.454Z,27.76
2023-04-21T12:02:57.454Z,27.75
2023-04-21T12:03:59.682Z,27.72
2023-04-21T12:05:11.234Z,27.76
2023-04-21T12:06:25.394Z,27.82
2023-04-21T12:07:29.816Z,27.78
2023-04-21T12:08:34.503Z,27.77
2023-04-21T12:09:36.909Z,27.76
2023-04-21T12:10:38.928Z,27.75
2023-04-21T12:11:41.228Z,27.76
2023-04-21T12:12:44.301Z,27.75
2023-04-21T12:13:46.676Z,27.76
2023-04-21T12:14:50.698Z,27.76
2023-04-21T12:15:52.773Z,27.77
2023-04-21T12:16:57.450Z,27.76
2023-04-21T12:17:59.450Z,27.79
2023-04-21T12:19:01.605Z,27.78
2023-04-21T12:20:12.123Z,27.81
2023-04-21T12:21:16.686Z,27.79
2023-04-21T12:22:18.966Z,27.80
2023-04-21T12:23:20.945Z,27.80
2023-04-21T12:24:23.257Z,27.81
2023-04-21T12:25:25.997Z,27.81
2023-04-21T12:26:27.899Z,27.82
2023-04-21T12:27:29.835Z,27.82
2023-04-21T12:28:31.952Z,27.81
2023-04-21T12:29:38.477Z,27.84
2023-04-21T12:30:42.360Z,27.83
2023-04-21T12:31:44.985Z,27.84
2023-04-21T12:32:48.603Z,27.84
2023-04-21T12:33:50.750Z,27.84
2023-04-21T12:34:52.794Z,27.85
2023-04-21T12:35:55.046Z,27.87
2023-04-21T12:36:57.174Z,27.87
2023-04-21T12:37:59.060Z,27.88
2023-04-21T12:39:00.985Z,27.89
2023-04-21T12:40:03.620Z,27.90
2023-04-21T12:41:06.012Z,27.91
2023-04-21T12:42:08.229Z,27.90
2023-04-21T12:43:10.134Z,27.92
2023-04-21T12:44:12.018Z,27.92
2023-04-21T12:45:15.331Z,27.92
2023-04-21T12:46:17.635Z,27.91
2023-04-21T12:47:19.542Z,27.95
2023-04-21T12:48:21.542Z,27.94
2023-04-21T12:49:24.667Z,27.95
2023-04-21T12:50:26.586Z,27.95
2023-04-21T12:51:28.649Z,27.98
2023-04-21T12:52:30.730Z,27.97
2023-04-21T12:53:32.831Z,27.98
2023-04-21T12:54:35.805Z,27.97
2023-04-21T12:55:39.029Z,27.99
2023-04-21T12:56:42.313Z,27.99
2023-04-21T12:57:44.681Z,28.00
2023-04-21T12:58:48.367Z,27.99
2023-04-21T12:59:50.274Z,28.02
2023-04-21T13:00:52.307Z,28.02
2023-04-21T13:01:54.837Z,28.03
2023-04-21T13:02:57.078Z,28.05
2023-04-21T13:04:00.514Z,28.05
2023-04-21T13:05:05.353Z,28.07
2023-04-21T13:06:09.049Z,28.08
2023-04-21T13:07:11.286Z,28.07
2023-04-21T13:08:13.508Z,28.06
2023-04-21T13:09:18.296Z,28.07
2023-04-21T13:10:20.971Z,28.09
2023-04-21T13:11:23.112Z,28.09
2023-04-21T13:12:25.389Z,28.10
2023-04-21T13:13:28.804Z,28.11
2023-04-21T13:14:30.757Z,28.11
2023-04-21T13:15:33.334Z,28.12
2023-04-21T13:16:35.435Z,28.13
2023-04-21T13:17:37.300Z,28.13
2023-04-21T13:18:39.814Z,28.13
2023-04-21T13:19:41.901Z,28.13
2023-04-21T13:20:44.049Z,28.13
2023-04-21T13:21:47.196Z,28.14
2023-04-21T13:22:49.126Z,28.15
2023-04-21T13:23:50.998Z,28.15
2023-04-21T13:24:52.840Z,28.16
2023-04-21T13:25:55.022Z,28.16
2023-04-21T13:26:58.557Z,28.18
2023-04-21T13:28:01.320Z,28.18
2023-04-21T13:29:04.255Z,28.17
2023-04-21T13:30:16.005Z,28.24
2023-04-21T13:31:18.122Z,28.22
2023-04-21T13:32:20.281Z,28.19
2023-04-21T13:33:22.903Z,28.20
2023-04-21T13:34:25.034Z,28.21
2023-04-21T13:35:27.051Z,28.20
2023-04-21T13:36:30.149Z,28.21
2023-04-21T13:37:33.012Z,28.20
2023-04-21T13:38:35.646Z,28.22
2023-04-21T13:39:37.611Z,28.22
2023-04-21T13:40:39.570Z,28.21
2023-04-21T13:41:41.958Z,28.25
2023-04-21T13:42:44.173Z,28.22
2023-04-21T13:43:46.813Z,28.24